createdAt,value
2023-03-06T00:02:07.939Z,13.93
2023-03-06T00:04:35.648Z,8.67
2023-03-06T00:07:04.735Z,11.03
2023-03-06T00:09:32.396Z,11.73
2023-03-06T00:12:00.031Z,10.13
2023-03-06T00:14:27.790Z,10.80
2023-03-06T00:16:56.825Z,12.83
2023-03-06T00:19:24.904Z,9.33
2023-03-06T00:21:52.531Z,6.63
2023-03-06T00:24:21.604Z,7.97
2023-03-06T00:26:49.272Z,6.70
2023-03-06T00:29:17.009Z,8.90
2023-03-06T00:31:47.758Z,14.77
2023-03-06T00:34:15.822Z,10.93
2023-03-06T00:36:43.488Z,9.77
2023-03-06T00:39:11.112Z,10.90
2023-03-06T00:41:40.454Z,12.23
2023-03-06T00:44:08.260Z,8.77
2023-03-06T00:46:36.041Z,12.50
2023-03-06T00:49:03.893Z,11.57
2023-03-06T00:51:31.542Z,10.47
2023-03-06T00:53:59.227Z,7.67
2023-03-06T00:56:26.891Z,10.50
2023-03-06T00:58:55.862Z,12.23
2023-03-06T01:01:23.936Z,10.77
2023-03-06T01:03:51.577Z,11.67
2023-03-06T01:06:19.221Z,10.77
2023-03-06T01:08:47.016Z,15.00
2023-03-06T01:11:14.748Z,16.50
2023-03-06T01:13:42.394Z,10.93
2023-03-06T01:16:13.534Z,13.33
2023-03-06T01:18:41.827Z,11.13
2023-03-06T01:21:09.838Z,16.17
2023-03-06T01:23:37.533Z,18.93
2023-03-06T01:26:05.835Z,11.47
2023-03-06T01:28:35.116Z,19.10
2023-03-06T01:31:02.876Z,15.37
2023-03-06T01:33:31.972Z,13.60
2023-03-06T01:35:59.713Z,17.97
2023-03-06T01:38:27.371Z,12.67
2023-03-06T01:40:54.987Z,12.37
2023-03-06T01:43:31.361Z,11.30
2023-03-06T01:46:38.675Z,12.63
2023-03-06T01:49:12.764Z,13.03
2023-03-06T01:51:42.452Z,16.23
2023-03-06T01:54:14.292Z,16.27
2023-03-06T01:56:44.140Z,16.00
2023-03-06T01:59:11.928Z,14.53
2023-03-06T02:01:40.436Z,19.43
2023-03-06T02:04:10.152Z,11.50
2023-03-06T02:06:42.275Z,18.33
2023-03-06T02:09:10.648Z,13.23
2023-03-06T02:11:38.542Z,15.73
2023-03-06T02:14:06.396Z,23.90
2023-03-06T02:16:34.916Z,18.37
2023-03-06T02:19:03.132Z,17.77
2023-03-06T02:21:34.560Z,19.50
2023-03-06T02:24:16.664Z,12.80
2023-03-06T02:26:46.508Z,18.53
2023-03-06T02:29:15.937Z,18.83
2023-03-06T02:31:43.608Z,17.70
2023-03-06T02:34:40.993Z,15.90
2023-03-06T02:37:10.956Z,21.60
2023-03-06T02:39:41.967Z,18.80
2023-03-06T02:42:11.095Z,17.53
2023-03-06T02:44:38.781Z,18.07
2023-03-06T02:47:07.807Z,20.30
2023-03-06T02:49:35.504Z,17.00
2023-03-06T02:52:03.236Z,15.90
2023-03-06T02:54:31.009Z,18.47
2023-03-06T02:56:58.711Z,18.97
2023-03-06T02:59:27.887Z,16.00
2023-03-06T03:01:55.592Z,19.53
2023-03-06T03:04:23.489Z,12.97
2023-03-06T03:06:51.197Z,17.33
2023-03-06T03:09:18.868Z,17.27
2023-03-06T03:11:46.543Z,12.93
2023-03-06T03:14:14.204Z,12.47
2023-03-06T03:16:43.241Z,15.03
2023-03-06T03:19:10.926Z,17.80
2023-03-06T03:21:38.902Z,14.20
2023-03-06T03:24:07.223Z,13.00
2023-03-06T03:26:34.899Z,14.20
2023-03-06T03:29:04.649Z,15.83
2023-03-06T03:31:32.636Z,11.47
2023-03-06T03:34:02.342Z,14.40
2023-03-06T03:36:30.086Z,14.70
2023-03-06T03:38:57.812Z,16.57
2023-03-06T03:41:25.448Z,12.27
2023-03-06T03:43:53.163Z,13.83
2023-03-06T03:46:21.650Z,12.07
2023-03-06T03:48:49.480Z,19.70
2023-03-06T03:51:18.806Z,13.83
2023-03-06T03:53:46.606Z,12.27
2023-03-06T03:56:14.547Z,13.50
2023-03-06T03:58:42.217Z,16.93
2023-03-06T04:01:09.899Z,18.57
2023-03-06T04:03:37.681Z,13.87
2023-03-06T04:06:05.708Z,23.60
2023-03-06T04:08:34.763Z,13.17
2023-03-06T04:11:02.904Z,12.30
2023-03-06T04:13:30.783Z,13.87
2023-03-06T04:15:59.679Z,17.23
2023-03-06T04:18:28.474Z,13.90
2023-03-06T04:20:56.338Z,14.07
2023-03-06T04:23:24.296Z,13.33
2023-03-06T04:25:53.372Z,17.37
2023-03-06T04:28:21.381Z,9.80
2023-03-06T04:30:49.049Z,13.70
2023-03-06T04:33:16.761Z,14.33
2023-03-06T04:35:44.497Z,14.20
2023-03-06T04:38:12.187Z,19.23
2023-03-06T04:40:39.876Z,16.07
2023-03-06T04:43:09.103Z,13.73
2023-03-06T04:45:36.962Z,18.33
2023-03-06T04:48:05.149Z,13.07
2023-03-06T04:50:32.966Z,11.60
2023-03-06T04:53:01.508Z,11.63
2023-03-06T04:55:29.912Z,15.43
2023-03-06T04:57:59.000Z,15.67
2023-03-06T05:00:31.402Z,16.43
2023-03-06T05:02:59.602Z,12.80
2023-03-06T05:05:27.924Z,14.90
2023-03-06T05:07:55.789Z,16.83
2023-03-06T05:10:23.560Z,15.10
2023-03-06T05:12:51.285Z,15.70
2023-03-06T05:15:19.338Z,13.73
2023-03-06T05:17:48.547Z,15.30
2023-03-06T05:20:18.193Z,15.80
2023-03-06T05:22:45.857Z,16.27
2023-03-06T05:25:13.833Z,16.37
2023-03-06T05:27:42.049Z,14.77
2023-03-06T05:30:13.584Z,15.60
2023-03-06T05:32:41.655Z,18.13
2023-03-06T05:35:18.600Z,18.80
2023-03-06T05:37:46.675Z,15.63
2023-03-06T05:40:15.241Z,17.60
2023-03-06T05:42:43.299Z,19.40
2023-03-06T05:45:12.248Z,18.93
2023-03-06T05:47:39.904Z,18.20
2023-03-06T05:50:10.348Z,20.13
2023-03-06T05:52:39.968Z,25.30
2023-03-06T05:55:09.217Z,22.23
2023-03-06T05:57:36.926Z,22.63
2023-03-06T06:00:05.518Z,23.07
2023-03-06T06:02:33.254Z,20.87
2023-03-06T06:05:02.408Z,19.73
2023-03-06T06:07:30.187Z,24.57
2023-03-06T06:09:59.188Z,21.67
2023-03-06T06:12:27.291Z,21.77
2023-03-06T06:14:55.040Z,22.33
2023-03-06T06:17:22.860Z,20.43
2023-03-06T06:19:50.509Z,23.63
2023-03-06T06:22:18.213Z,19.33
2023-03-06T06:24:45.910Z,25.93
2023-03-06T06:27:14.955Z,29.10
2023-03-06T06:29:42.595Z,22.07
2023-03-06T06:32:10.308Z,24.30
2023-03-06T06:34:38.002Z,17.83
2023-03-06T06:37:05.764Z,19.87
2023-03-06T06:39:33.467Z,23.13
2023-03-06T06:42:26.135Z,15.50
2023-03-06T06:44:51.468Z,16.33
2023-03-06T06:47:24.632Z,14.43
2023-03-06T06:49:53.754Z,18.90
2023-03-06T06:52:21.746Z,17.50
2023-03-06T06:54:49.525Z,18.20
2023-03-06T06:57:17.630Z,17.37
2023-03-06T06:59:45.392Z,17.30
2023-03-06T07:02:15.841Z,18.23
2023-03-06T07:05:00.387Z,17.07
2023-03-06T07:07:30.805Z,18.23
2023-03-06T07:09:58.540Z,17.07
2023-03-06T07:12:26.264Z,16.73
2023-03-06T07:14:53.985Z,13.83
2023-03-06T07:17:22.998Z,14.90
2023-03-06T07:19:51.258Z,13.13
2023-03-06T07:22:19.020Z,14.33
2023-03-06T07:24:46.844Z,14.87
2023-03-06T07:27:14.529Z,14.23
2023-03-06T07:29:44.031Z,13.43
2023-03-06T07:32:11.777Z,11.73
2023-03-06T07:34:41.042Z,10.03
2023-03-06T07:37:08.760Z,9.03
2023-03-06T07:39:36.422Z,10.80
2023-03-06T07:42:04.306Z,10.07
2023-03-06T07:44:32.758Z,11.77
2023-03-06T07:47:00.416Z,10.73
2023-03-06T07:49:28.061Z,10.87
2023-03-06T07:51:57.095Z,12.57
2023-03-06T07:54:24.849Z,11.70
2023-03-06T07:56:53.082Z,11.23
2023-03-06T07:59:20.816Z,9.10
2023-03-06T08:01:48.529Z,8.33
2023-03-06T08:04:16.193Z,8.13
2023-03-06T08:06:43.866Z,4.97
2023-03-06T08:09:12.917Z,5.90
2023-03-06T08:11:40.638Z,5.93
2023-03-06T08:14:08.370Z,6.83
2023-03-06T08:16:36.222Z,8.83
2023-03-06T08:19:03.966Z,10.63
2023-03-06T08:21:31.683Z,8.87
2023-03-06T08:23:59.718Z,10.30
2023-03-06T08:26:31.046Z,10.60
2023-03-06T08:29:00.698Z,9.77
2023-03-06T08:31:30.670Z,7.70
2023-03-06T08:34:00.317Z,7.90
2023-03-06T08:36:28.162Z,6.37
2023-03-06T08:38:55.947Z,4.13
2023-03-06T08:41:23.797Z,4.63
2023-03-06T08:43:53.338Z,4.83
2023-03-06T08:46:22.208Z,5.80
2023-03-06T08:48:50.222Z,5.80
2023-03-06T08:51:18.690Z,6.70
2023-03-06T08:53:46.991Z,6.73
2023-03-06T08:56:18.720Z,5.70
2023-03-06T08:58:47.033Z,3.10
2023-03-06T09:01:18.554Z,2.53
2023-03-06T09:03:46.797Z,2.73
2023-03-06T09:06:15.090Z,2.00
2023-03-06T09:08:44.454Z,2.70
2023-03-06T09:11:12.676Z,3.30
2023-03-06T09:13:40.694Z,3.17
2023-03-06T09:16:08.861Z,6.40
2023-03-06T09:18:38.245Z,4.87
2023-03-06T09:21:06.904Z,3.43
2023-03-06T09:23:35.265Z,3.00
2023-03-06T09:26:03.140Z,4.80
2023-03-06T09:28:31.192Z,4.27
2023-03-06T09:30:59.243Z,1.47
2023-03-06T09:33:28.758Z,3.30
2023-03-06T09:35:58.600Z,4.33
2023-03-06T09:38:27.729Z,4.83
2023-03-06T09:43:37.014Z,2.37
2023-03-06T09:46:10.616Z,4.27
2023-03-06T09:48:42.914Z,2.60
2023-03-06T09:51:15.869Z,1.80
2023-03-06T09:53:54.384Z,2.13
2023-03-06T09:56:23.885Z,2.20
2023-03-06T09:58:55.248Z,1.37
2023-03-06T10:01:24.886Z,2.77
2023-03-06T10:03:55.890Z,4.20
2023-03-06T10:06:27.476Z,2.97
2023-03-06T10:08:59.388Z,5.03
2023-03-06T10:11:30.956Z,2.37
2023-03-06T10:14:09.225Z,5.93
2023-03-06T10:16:37.029Z,4.93
2023-03-06T10:19:08.353Z,1.20
2023-03-06T10:21:44.622Z,2.33
2023-03-06T10:24:21.436Z,2.57
2023-03-06T10:26:53.693Z,4.53
2023-03-06T10:29:39.321Z,4.33
2023-03-06T10:32:13.735Z,1.07
2023-03-06T10:34:42.861Z,6.57
2023-03-06T10:37:19.515Z,1.60
2023-03-06T10:39:47.487Z,2.30
2023-03-06T10:42:15.118Z,2.70
2023-03-06T10:44:43.345Z,2.80
2023-03-06T10:47:29.952Z,2.73
2023-03-06T10:49:59.490Z,7.20
2023-03-06T10:52:31.027Z,3.57
2023-03-06T10:55:23.587Z,5.33
2023-03-06T10:57:51.341Z,2.87
2023-03-06T11:00:28.937Z,3.47
2023-03-06T11:03:14.752Z,1.50
2023-03-06T11:05:42.514Z,4.67
2023-03-06T11:08:21.860Z,1.87
2023-03-06T11:10:57.101Z,8.73
2023-03-06T11:13:27.368Z,2.80
2023-03-06T11:16:05.119Z,5.47
2023-03-06T11:18:37.571Z,2.30
2023-03-06T11:21:09.056Z,2.53
2023-03-06T11:23:42.486Z,2.70
2023-03-06T11:26:31.097Z,3.13
2023-03-06T11:29:07.614Z,4.33
2023-03-06T11:31:39.311Z,3.30
2023-03-06T11:34:14.436Z,4.97
2023-03-06T11:36:47.604Z,2.67
2023-03-06T11:39:23.908Z,3.80
2023-03-06T11:41:58.934Z,0.60
2023-03-06T11:44:36.868Z,3.17
2023-03-06T11:47:10.265Z,1.60
2023-03-06T11:49:42.084Z,0.90
2023-03-06T11:52:18.990Z,1.67
2023-03-06T11:54:53.120Z,1.47
2023-03-06T11:57:24.096Z,3.77
2023-03-06T12:00:00.018Z,1.53
2023-03-06T12:02:40.654Z,4.73
2023-03-06T12:05:22.615Z,0.80
2023-03-06T12:07:55.896Z,5.00
2023-03-06T12:10:27.744Z,3.50
2023-03-06T12:13:13.367Z,3.87
2023-03-06T12:15:53.536Z,3.43
2023-03-06T12:18:34.264Z,1.23
2023-03-06T12:21:05.686Z,2.87
2023-03-06T12:24:01.821Z,3.03
2023-03-06T12:26:55.973Z,3.07
2023-03-06T12:29:34.525Z,0.80
2023-03-06T12:32:14.130Z,7.07
2023-03-06T12:35:01.509Z,2.43
2023-03-06T12:37:35.468Z,0.70
2023-03-06T12:40:20.760Z,2.87
2023-03-06T12:43:03.173Z,2.60
2023-03-06T12:45:32.085Z,2.60
2023-03-06T12:48:00.333Z,3.00
2023-03-06T12:50:29.690Z,2.20
2023-03-06T12:52:59.277Z,4.20
2023-03-06T12:55:27.784Z,5.60
2023-03-06T12:57:56.855Z,1.43
2023-03-06T13:01:04.668Z,2.53
2023-03-06T13:03:39.378Z,1.50
2023-03-06T13:06:22.737Z,1.43
2023-03-06T13:09:13.158Z,3.53
2023-03-06T13:12:03.761Z,1.73
2023-03-06T13:14:54.810Z,2.67
2023-03-06T13:17:28.068Z,1.93
2023-03-06T13:20:35.619Z,2.90
2023-03-06T13:23:43.105Z,0.70
2023-03-06T13:26:12.108Z,1.33
2023-03-06T13:28:44.988Z,4.57
2023-03-06T13:31:26.376Z,1.30
2023-03-06T13:33:59.805Z,1.53
2023-03-06T13:36:29.917Z,3.37
2023-03-06T13:39:08.593Z,1.73
2023-03-06T13:41:58.313Z,3.70
2023-03-06T13:44:47.344Z,2.43
2023-03-06T13:48:01.411Z,1.33
2023-03-06T13:50:34.540Z,2.83
2023-03-06T13:53:32.817Z,2.23
2023-03-06T13:56:37.098Z,5.57
2023-03-06T13:59:18.376Z,1.07
2023-03-06T14:01:53.842Z,2.77
2023-03-06T14:04:38.668Z,3.60
2023-03-06T14:07:23.008Z,2.43
2023-03-06T14:09:58.818Z,2.83
2023-03-06T14:12:29.967Z,3.00
2023-03-06T14:15:00.500Z,3.57
2023-03-06T14:17:30.548Z,1.50
2023-03-06T14:20:03.255Z,3.30
2023-03-06T14:22:30.969Z,3.00
2023-03-06T14:25:01.787Z,2.30
2023-03-06T14:27:43.467Z,2.60
2023-03-06T14:30:16.101Z,0.97
2023-03-06T14:32:44.299Z,1.43
2023-03-06T14:35:27.289Z,3.30
2023-03-06T14:37:56.667Z,2.27
2023-03-06T14:40:31.990Z,1.70
2023-03-06T14:43:22.698Z,1.93
2023-03-06T14:45:52.028Z,2.70
2023-03-06T14:48:19.883Z,1.03
2023-03-06T14:50:53.618Z,1.00
2023-03-06T14:53:25.184Z,1.40
2023-03-06T14:55:54.272Z,2.13
2023-03-06T14:58:27.450Z,4.20
2023-03-06T15:00:56.572Z,5.43
2023-03-06T15:03:26.772Z,1.17
2023-03-06T15:05:56.386Z,2.37
2023-03-06T15:08:27.621Z,1.10
2023-03-06T15:10:56.595Z,4.53
2023-03-06T15:13:26.626Z,0.83
2023-03-06T15:15:59.807Z,1.90
2023-03-06T15:18:29.813Z,2.10
2023-03-06T15:21:09.808Z,1.20
2023-03-06T15:23:39.330Z,1.50
2023-03-06T15:26:31.410Z,3.67
2023-03-06T15:29:08.900Z,2.87
2023-03-06T15:31:38.463Z,2.53
2023-03-06T15:34:23.322Z,1.93
2023-03-06T15:36:55.231Z,1.70
2023-03-06T15:39:31.263Z,1.40
2023-03-06T15:41:59.590Z,58.67
2023-03-06T15:44:27.705Z,60.73
2023-03-06T15:47:07.724Z,3.40
2023-03-06T15:49:37.901Z,1.80
2023-03-06T15:52:07.432Z,1.77
2023-03-06T15:54:35.402Z,1.87
2023-03-06T15:57:04.347Z,1.97
2023-03-06T15:59:33.225Z,1.70
2023-03-06T16:02:04.348Z,4.23
2023-03-06T16:04:32.056Z,2.33
2023-03-06T16:06:59.740Z,1.03
2023-03-06T16:09:28.764Z,1.60
2023-03-06T16:11:56.455Z,1.73
2023-03-06T16:14:24.468Z,1.37
2023-03-06T16:16:54.049Z,3.23
2023-03-06T16:19:26.238Z,1.70
2023-03-06T16:21:54.996Z,1.50
2023-03-06T16:24:22.719Z,1.90
2023-03-06T16:26:53.345Z,2.67
2023-03-06T16:29:22.494Z,2.37
2023-03-06T16:31:50.210Z,1.90
2023-03-06T16:34:19.822Z,1.60
2023-03-06T16:36:48.825Z,1.90
2023-03-06T16:39:17.570Z,1.90
2023-03-06T16:41:46.105Z,1.53
2023-03-06T16:44:15.196Z,2.83
2023-03-06T16:46:45.818Z,1.60
2023-03-06T16:49:16.860Z,3.33
2023-03-06T16:51:45.110Z,3.70
2023-03-06T16:54:12.969Z,3.63
2023-03-06T16:56:40.705Z,2.40
2023-03-06T16:59:08.836Z,2.23
2023-03-06T17:01:38.582Z,5.40
2023-03-06T17:04:06.552Z,3.37
2023-03-06T17:06:34.202Z,5.27
2023-03-06T17:09:01.948Z,3.53
2023-03-06T17:11:29.684Z,6.37
2023-03-06T17:13:57.387Z,15.93
2023-03-06T17:16:25.018Z,8.43
2023-03-06T17:18:58.133Z,19.03
2023-03-06T17:21:27.044Z,14.67
2023-03-06T17:23:54.756Z,8.97
2023-03-06T17:26:22.500Z,9.13
2023-03-06T17:28:50.188Z,9.93
2023-03-06T17:31:21.689Z,9.67
2023-03-06T17:33:49.631Z,10.57
2023-03-06T17:36:19.261Z,10.57
2023-03-06T17:38:47.238Z,11.20
2023-03-06T17:41:15.122Z,9.90
2023-03-06T17:43:43.283Z,8.90
2023-03-06T17:46:13.425Z,10.37
2023-03-06T17:48:41.537Z,10.40
2023-03-06T17:51:09.933Z,11.20
2023-03-06T17:53:39.483Z,10.67
2023-03-06T17:56:09.626Z,10.13
2023-03-06T17:58:37.408Z,10.83
2023-03-06T18:01:11.140Z,11.03
2023-03-06T18:03:38.854Z,10.43
2023-03-06T18:06:09.387Z,11.33
2023-03-06T18:08:37.624Z,10.57
2023-03-06T18:11:08.386Z,12.23
2023-03-06T18:13:37.497Z,14.47
2023-03-06T18:16:06.246Z,11.83
2023-03-06T18:18:34.055Z,12.20
2023-03-06T18:21:04.606Z,13.50
2023-03-06T18:23:32.326Z,13.33
2023-03-06T18:26:11.797Z,13.07
2023-03-06T18:28:42.464Z,17.23
2023-03-06T18:31:15.884Z,18.57
2023-03-06T18:33:43.625Z,16.43
2023-03-06T18:36:11.441Z,16.03
2023-03-06T18:38:40.126Z,16.57
2023-03-06T18:41:08.427Z,20.53
2023-03-06T18:43:38.338Z,20.33
2023-03-06T18:46:07.051Z,20.70
2023-03-06T18:48:34.906Z,21.60
2023-03-06T18:51:05.473Z,24.97
2023-03-06T18:53:33.190Z,19.80
2023-03-06T18:56:00.962Z,25.60
2023-03-06T18:58:28.976Z,24.87
2023-03-06T19:00:59.711Z,27.37
2023-03-06T19:03:27.496Z,24.57
2023-03-06T19:05:55.787Z,29.27
2023-03-06T19:08:23.774Z,29.10
2023-03-06T19:10:51.790Z,28.30
2023-03-06T19:13:19.498Z,29.10
2023-03-06T19:15:48.985Z,30.50
2023-03-06T19:18:18.978Z,32.83
2023-03-06T19:20:46.663Z,28.47
2023-03-06T19:23:14.516Z,34.87
2023-03-06T19:25:42.213Z,32.57
2023-03-06T19:28:09.898Z,38.37
2023-03-06T19:30:40.867Z,35.57
2023-03-06T19:33:08.546Z,40.17
2023-03-06T19:35:37.656Z,35.80
2023-03-06T19:38:05.353Z,36.13
2023-03-06T19:40:33.009Z,42.53
2023-03-06T19:43:00.708Z,35.90
2023-03-06T19:45:28.463Z,38.20
2023-03-06T19:48:00.797Z,42.07
2023-03-06T19:50:29.600Z,40.63
2023-03-06T19:52:59.453Z,44.33
2023-03-06T19:55:28.645Z,44.77
2023-03-06T19:57:56.336Z,45.60
2023-03-06T20:00:24.168Z,45.93
2023-03-06T20:02:51.936Z,49.40
2023-03-06T20:05:20.117Z,50.83
2023-03-06T20:07:47.810Z,50.27
2023-03-06T20:10:17.121Z,48.33
2023-03-06T20:12:45.183Z,48.57
2023-03-06T20:15:13.072Z,47.90
2023-03-06T20:17:41.095Z,46.43
2023-03-06T20:20:10.915Z,53.27
2023-03-06T20:22:38.656Z,50.17
2023-03-06T20:25:07.154Z,57.50
2023-03-06T20:27:36.261Z,57.00
2023-03-06T20:30:06.435Z,56.83
2023-03-06T20:32:35.446Z,56.87
2023-03-06T20:35:03.522Z,59.73
2023-03-06T20:37:31.307Z,58.23
2023-03-06T20:39:59.079Z,60.30
2023-03-06T20:42:26.806Z,64.17
2023-03-06T20:44:55.967Z,62.30
2023-03-06T20:47:23.616Z,58.93
2023-03-06T20:49:51.335Z,63.70
2023-03-06T20:52:19.031Z,60.73
2023-03-06T20:54:47.069Z,61.10
2023-03-06T20:57:14.741Z,58.67
2023-03-06T20:59:42.497Z,58.13
2023-03-06T21:02:14.792Z,59.30
2023-03-06T21:04:42.585Z,60.30
2023-03-06T21:07:10.345Z,58.27
2023-03-06T21:09:39.582Z,64.43
2023-03-06T21:12:07.497Z,62.37
2023-03-06T21:14:35.361Z,53.50
2023-03-06T21:17:03.092Z,55.30
2023-03-06T21:19:32.161Z,56.70
2023-03-06T21:21:59.821Z,56.80
2023-03-06T21:24:27.487Z,61.60
2023-03-06T21:26:55.329Z,62.37
2023-03-06T21:29:22.999Z,60.73
2023-03-06T21:31:50.688Z,57.53
2023-03-06T21:34:18.418Z,54.60
2023-03-06T21:36:47.426Z,54.20
2023-03-06T21:39:15.103Z,66.43
2023-03-06T21:41:42.780Z,58.63
2023-03-06T21:44:11.589Z,51.80
2023-03-06T21:46:39.353Z,57.33
2023-03-06T21:49:07.056Z,55.60
2023-03-06T21:51:34.933Z,53.17
2023-03-06T21:54:04.407Z,57.53
2023-03-06T21:56:33.430Z,58.90
2023-03-06T21:59:01.366Z,52.77
2023-03-06T22:01:30.133Z,52.67
2023-03-06T22:03:58.462Z,56.83
2023-03-06T22:06:27.329Z,54.03
2023-03-06T22:08:56.448Z,56.83
2023-03-06T22:11:26.834Z,54.67
2023-03-06T22:13:54.531Z,55.33
2023-03-06T22:16:22.401Z,53.93
2023-03-06T22:18:51.733Z,47.63
2023-03-06T22:21:21.357Z,50.57
2023-03-06T22:23:50.269Z,49.00
2023-03-06T22:26:17.922Z,46.03
2023-03-06T22:28:47.412Z,44.80
2023-03-06T22:31:17.155Z,46.77
2023-03-06T22:33:45.078Z,50.03
2023-03-06T22:36:14.525Z,49.80
2023-03-06T22:38:43.370Z,45.60
2023-03-06T22:41:12.293Z,48.57
2023-03-06T22:43:40.248Z,47.43
2023-03-06T22:46:10.873Z,44.93
2023-03-06T22:48:38.685Z,46.30
2023-03-06T22:51:07.963Z,45.10
2023-03-06T22:53:35.777Z,43.50
2023-03-06T22:56:05.364Z,45.97
2023-03-06T22:58:36.972Z,44.03
2023-03-06T23:01:06.877Z,44.17
2023-03-06T23:03:36.412Z,45.40
2023-03-06T23:06:07.032Z,40.73
2023-03-06T23:08:34.705Z,38.90
2023-03-06T23:11:02.452Z,40.77
2023-03-06T23:13:30.166Z,42.50
2023-03-06T23:15:57.925Z,44.10
2023-03-06T23:18:29.003Z,42.17
2023-03-06T23:20:58.853Z,41.43
2023-03-06T23:23:26.623Z,45.10
2023-03-06T23:25:54.479Z,38.27
2023-03-06T23:28:22.191Z,45.10
2023-03-06T23:30:49.907Z,44.30
2023-03-06T23:33:17.668Z,43.20
2023-03-06T23:35:45.438Z,40.10
2023-03-06T23:38:14.551Z,41.37
2023-03-06T23:40:42.276Z,37.63
2023-03-06T23:43:09.980Z,39.73
2023-03-06T23:45:37.634Z,35.10
2023-03-06T23:48:07.090Z,41.13
2023-03-06T23:50:34.786Z,38.20
2023-03-06T23:53:02.526Z,40.47
2023-03-06T23:55:31.567Z,36.60
2023-03-06T23:57:59.218Z,43.17
